PWSweather.com
Personal Weather Stations
Station Observations
ANTHEMNP
Anthem, AZ 85086

Anthem, AZ 85086

Lat: 33.876464, Lon: -112.13861199999997

Elevation: 1930

Station Type: AcuRite 1036

High Low Average
Temperature 102.7°F39.3°C 72.1°F22.3°C 89.6°F32.0°C
Dew Point 67.6°F19.8°C 57.7°F14.3°C 63.2°F17.3°C
Winds 20.7 mph 33.3 kmh Calm Calm 5.0 mph SE8.0 kmh SE
Wind Gusts 24.2 mph38.9 kmh -- 6.0 mph9.7 kmh
Humidity 81% 30% 43%
Pressure 29.96 in1014.6 mb 29.82 in1009.8 mb -
Precipitation 0.23 in5.8 mm - -
Hour Temp Dew Point Humidity Winds Wind Gusts Pressure Precip Precip Rate Daily Precip Total
12:00 AM 88.9°F31.6°C 57.7°F14.3°C 35% 3.5 mph N5.6 kmh N 4.6 mph7.4 kmh 29.83 in1010.2 mb - 0.00 in0.0 mm 0.00 in0.0 mm
12:05 AM 89.1°F31.7°C 57.9°F14.4°C 35% 3.5 mph NNE5.6 kmh NNE 5.8 mph9.3 kmh 29.83 in1010.2 mb - 0.00 in0.0 mm 0.00 in0.0 mm
12:10 AM 89.5°F31.9°C 58.3°F14.6°C 35% 4.6 mph N7.4 kmh N 5.8 mph9.3 kmh 29.83 in1010.2 mb - 0.00 in0.0 mm 0.00 in0.0 mm
12:15 AM 89.6°F32.0°C 58.3°F14.6°C 35% 3.5 mph N5.6 kmh N 3.5 mph5.6 kmh 29.83 in1010.2 mb - 0.00 in0.0 mm 0.00 in0.0 mm
12:20 AM 89.4°F31.9°C 58.1°F14.5°C 35% 3.5 mph N5.6 kmh N 4.6 mph7.4 kmh 29.83 in1010.2 mb - 0.00 in0.0 mm 0.00 in0.0 mm
12:25 AM 89.1°F31.7°C 57.9°F14.4°C 35% 3.5 mph NNE5.6 kmh NNE 4.6 mph7.4 kmh 29.83 in1010.2 mb - 0.00 in0.0 mm 0.00 in0.0 mm
12:30 AM 88.9°F31.6°C 57.7°F14.3°C 35% 3.5 mph NNE5.6 kmh NNE 3.5 mph5.6 kmh 29.83 in1010.2 mb - 0.00 in0.0 mm 0.00 in0.0 mm
12:35 AM 88.7°F31.5°C 58.3°F14.6°C 36% 2.3 mph NE3.7 kmh NE 2.3 mph3.7 kmh 29.83 in1010.2 mb - 0.00 in0.0 mm 0.00 in0.0 mm
12:40 AM 88.4°F31.3°C 58.0°F14.4°C 36% 3.5 mph NNE5.6 kmh NNE 2.3 mph3.7 kmh 29.83 in1010.2 mb - 0.00 in0.0 mm 0.00 in0.0 mm
12:45 AM 88.3°F31.3°C 58.0°F14.4°C 36% 1.2 mph NE1.9 kmh NE 3.5 mph5.6 kmh 29.83 in1010.2 mb - 0.00 in0.0 mm 0.00 in0.0 mm
12:50 AM 88.2°F31.2°C 57.9°F14.4°C 36% 3.5 mph NE5.6 kmh NE 4.6 mph7.4 kmh 29.83 in1010.2 mb - 0.00 in0.0 mm 0.00 in0.0 mm
12:55 AM 88.2°F31.2°C 57.9°F14.4°C 36% 4.6 mph NE7.4 kmh NE 5.8 mph9.3 kmh 29.83 in1010.2 mb - 0.00 in0.0 mm 0.00 in0.0 mm
01:00 AM 88.2°F31.2°C 57.9°F14.4°C 36% 4.6 mph NNE7.4 kmh NNE 5.8 mph9.3 kmh 29.83 in1010.2 mb - 0.00 in0.0 mm 0.00 in0.0 mm
01:05 AM 88.2°F31.2°C 57.9°F14.4°C 36% 4.6 mph NE7.4 kmh NE 5.8 mph9.3 kmh 29.83 in1010.2 mb - 0.00 in0.0 mm 0.00 in0.0 mm
01:10 AM 88.2°F31.2°C 57.9°F14.4°C 36% 4.6 mph N7.4 kmh N 5.8 mph9.3 kmh 29.84 in1010.5 mb - 0.00 in0.0 mm 0.00 in0.0 mm
01:15 AM 88.2°F31.2°C 57.9°F14.4°C 36% 4.6 mph N7.4 kmh N 4.6 mph7.4 kmh 29.84 in1010.5 mb - 0.00 in0.0 mm 0.00 in0.0 mm
01:20 AM 88.2°F31.2°C 57.9°F14.4°C 36% 4.6 mph NNW7.4 kmh NNW 5.8 mph9.3 kmh 29.83 in1010.2 mb - 0.00 in0.0 mm 0.00 in0.0 mm
01:25 AM 88.0°F31.1°C 58.5°F14.7°C 37% 4.6 mph N7.4 kmh N 4.6 mph7.4 kmh 29.83 in1010.2 mb - 0.00 in0.0 mm 0.00 in0.0 mm
01:30 AM 87.8°F31.0°C 58.3°F14.6°C 37% 5.8 mph N9.3 kmh N 8.1 mph13.0 kmh 29.83 in1010.2 mb - 0.00 in0.0 mm 0.00 in0.0 mm
01:35 AM 87.8°F31.0°C 58.3°F14.6°C 37% 4.6 mph N7.4 kmh N 5.8 mph9.3 kmh 29.84 in1010.5 mb - 0.00 in0.0 mm 0.00 in0.0 mm
01:40 AM 87.8°F31.0°C 58.3°F14.6°C 37% 5.8 mph NNE9.3 kmh NNE 9.2 mph14.8 kmh 29.84 in1010.5 mb - 0.00 in0.0 mm 0.00 in0.0 mm
01:45 AM 87.8°F31.0°C 58.3°F14.6°C 37% 5.8 mph N9.3 kmh N 5.8 mph9.3 kmh 29.84 in1010.5 mb - 0.00 in0.0 mm 0.00 in0.0 mm
01:50 AM 87.8°F31.0°C 58.3°F14.6°C 37% 5.8 mph NNE9.3 kmh NNE 5.8 mph9.3 kmh 29.84 in1010.5 mb - 0.00 in0.0 mm 0.00 in0.0 mm
01:55 AM 87.8°F31.0°C 58.3°F14.6°C 37% 4.6 mph NNE7.4 kmh NNE 4.6 mph7.4 kmh 29.84 in1010.5 mb - 0.00 in0.0 mm 0.00 in0.0 mm
02:00 AM 87.4°F30.8°C 57.9°F14.4°C 37% 3.5 mph NE5.6 kmh NE 4.6 mph7.4 kmh 29.84 in1010.5 mb - 0.00 in0.0 mm 0.00 in0.0 mm
02:05 AM 87.4°F30.8°C 57.9°F14.4°C 37% 3.5 mph NE5.6 kmh NE 4.6 mph7.4 kmh 29.84 in1010.5 mb - 0.00 in0.0 mm 0.00 in0.0 mm
02:10 AM 87.4°F30.8°C 57.9°F14.4°C 37% 3.5 mph NNE5.6 kmh NNE 4.6 mph7.4 kmh 29.84 in1010.5 mb - 0.00 in0.0 mm 0.00 in0.0 mm
02:15 AM 87.4°F30.8°C 58.7°F14.8°C 38% 3.5 mph NNE5.6 kmh NNE 4.6 mph7.4 kmh 29.84 in1010.5 mb - 0.00 in0.0 mm 0.00 in0.0 mm
02:20 AM 87.3°F30.7°C 58.6°F14.8°C 38% 3.5 mph NE5.6 kmh NE 5.8 mph9.3 kmh 29.84 in1010.5 mb - 0.00 in0.0 mm 0.00 in0.0 mm
02:25 AM 87.1°F30.6°C 58.4°F14.7°C 38% 3.5 mph NNE5.6 kmh NNE 4.6 mph7.4 kmh 29.84 in1010.5 mb - 0.00 in0.0 mm 0.00 in0.0 mm
02:30 AM 87.1°F30.6°C 58.4°F14.7°C 38% 4.6 mph NE7.4 kmh NE 5.8 mph9.3 kmh 29.84 in1010.5 mb - 0.00 in0.0 mm 0.00 in0.0 mm
02:35 AM 86.9°F30.5°C 58.2°F14.6°C 38% 3.5 mph NE5.6 kmh NE 3.5 mph5.6 kmh 29.85 in1010.8 mb - 0.00 in0.0 mm 0.00 in0.0 mm
02:40 AM 86.7°F30.4°C 58.1°F14.5°C 38% 3.5 mph NE5.6 kmh NE 4.6 mph7.4 kmh 29.85 in1010.8 mb - 0.00 in0.0 mm 0.00 in0.0 mm
02:45 AM 86.6°F30.3°C 58.0°F14.4°C 38% 2.3 mph NE3.7 kmh NE 3.5 mph5.6 kmh 29.85 in1010.8 mb - 0.00 in0.0 mm 0.00 in0.0 mm
02:50 AM 86.5°F30.3°C 57.9°F14.4°C 38% 3.5 mph ENE5.6 kmh ENE 3.5 mph5.6 kmh 29.85 in1010.8 mb - 0.00 in0.0 mm 0.00 in0.0 mm
02:55 AM 86.5°F30.3°C 58.6°F14.8°C 39% 2.3 mph NW3.7 kmh NW 2.3 mph3.7 kmh 29.85 in1010.8 mb - 0.00 in0.0 mm 0.00 in0.0 mm
03:00 AM 86.5°F30.3°C 58.6°F14.8°C 39% 2.3 mph NW3.7 kmh NW 4.6 mph7.4 kmh 29.85 in1010.8 mb - 0.00 in0.0 mm 0.00 in0.0 mm
03:05 AM 86.4°F30.2°C 58.5°F14.7°C 39% 2.3 mph NNE3.7 kmh NNE 3.5 mph5.6 kmh 29.85 in1010.8 mb - 0.00 in0.0 mm 0.00 in0.0 mm
03:10 AM 86.2°F30.1°C 58.3°F14.6°C 39% 2.3 mph N3.7 kmh N 4.6 mph7.4 kmh 29.85 in1010.8 mb - 0.00 in0.0 mm 0.00 in0.0 mm
03:15 AM 86.0°F30.0°C 58.2°F14.6°C 39% 2.3 mph NW3.7 kmh NW 2.3 mph3.7 kmh 29.85 in1010.8 mb - 0.00 in0.0 mm 0.00 in0.0 mm
03:20 AM 85.8°F29.9°C 58.7°F14.8°C 40% 3.5 mph NNE5.6 kmh NNE 3.5 mph5.6 kmh 29.85 in1010.8 mb - 0.00 in0.0 mm 0.00 in0.0 mm
03:25 AM 85.6°F29.8°C 58.5°F14.7°C 40% 4.6 mph NE7.4 kmh NE 4.6 mph7.4 kmh 29.85 in1010.8 mb - 0.00 in0.0 mm 0.00 in0.0 mm
03:30 AM 85.5°F29.7°C 58.4°F14.7°C 40% 4.6 mph NNE7.4 kmh NNE 5.8 mph9.3 kmh 29.85 in1010.8 mb - 0.00 in0.0 mm 0.00 in0.0 mm
03:35 AM 85.5°F29.7°C 58.4°F14.7°C 40% 4.6 mph NE7.4 kmh NE 6.9 mph11.1 kmh 29.85 in1010.8 mb - 0.00 in0.0 mm 0.00 in0.0 mm
03:40 AM 85.5°F29.7°C 58.4°F14.7°C 40% 4.6 mph N7.4 kmh N 5.8 mph9.3 kmh 29.85 in1010.8 mb - 0.00 in0.0 mm 0.00 in0.0 mm
03:45 AM 85.6°F29.8°C 58.5°F14.7°C 40% 6.9 mph N11.1 kmh N 8.1 mph13.0 kmh 29.85 in1010.8 mb - 0.00 in0.0 mm 0.00 in0.0 mm
03:50 AM 85.6°F29.8°C 58.5°F14.7°C 40% 6.9 mph NNE11.1 kmh NNE 5.8 mph9.3 kmh 29.85 in1010.8 mb - 0.00 in0.0 mm 0.00 in0.0 mm
03:55 AM 85.6°F29.8°C 58.5°F14.7°C 40% 6.9 mph N11.1 kmh N 8.1 mph13.0 kmh 29.85 in1010.8 mb - 0.00 in0.0 mm 0.00 in0.0 mm
04:00 AM 85.6°F29.8°C 58.5°F14.7°C 40% 6.9 mph NE11.1 kmh NE 8.1 mph13.0 kmh 29.85 in1010.8 mb - 0.00 in0.0 mm 0.00 in0.0 mm
04:05 AM 85.6°F29.8°C 58.5°F14.7°C 40% 5.8 mph NNE9.3 kmh NNE 6.9 mph11.1 kmh 29.85 in1010.8 mb - 0.00 in0.0 mm 0.00 in0.0 mm
04:10 AM 85.5°F29.7°C 58.4°F14.7°C 40% 4.6 mph N7.4 kmh N 5.8 mph9.3 kmh 29.85 in1010.8 mb - 0.00 in0.0 mm 0.00 in0.0 mm
04:15 AM 85.3°F29.6°C 58.9°F14.9°C 41% 4.6 mph NE7.4 kmh NE 5.8 mph9.3 kmh 29.85 in1010.8 mb - 0.00 in0.0 mm 0.00 in0.0 mm
04:20 AM 85.1°F29.5°C 58.8°F14.9°C 41% 3.5 mph NE5.6 kmh NE 5.8 mph9.3 kmh 29.85 in1010.8 mb - 0.00 in0.0 mm 0.00 in0.0 mm
04:25 AM 84.9°F29.4°C 58.6°F14.8°C 41% 5.8 mph NE9.3 kmh NE 5.8 mph9.3 kmh 29.85 in1010.8 mb - 0.00 in0.0 mm 0.00 in0.0 mm
04:30 AM 84.9°F29.4°C 58.6°F14.8°C 41% 4.6 mph NNE7.4 kmh NNE 5.8 mph9.3 kmh 29.85 in1010.8 mb - 0.00 in0.0 mm 0.00 in0.0 mm
04:35 AM 84.9°F29.4°C 58.6°F14.8°C 41% 4.6 mph NNE7.4 kmh NNE 5.8 mph9.3 kmh 29.86 in1011.2 mb - 0.00 in0.0 mm 0.00 in0.0 mm
04:40 AM 84.9°F29.4°C 58.6°F14.8°C 41% 2.3 mph NNE3.7 kmh NNE 2.3 mph3.7 kmh 29.86 in1011.2 mb - 0.00 in0.0 mm 0.00 in0.0 mm
04:45 AM 84.9°F29.4°C 58.6°F14.8°C 41% 3.5 mph NE5.6 kmh NE 3.5 mph5.6 kmh 29.86 in1011.2 mb - 0.00 in0.0 mm 0.00 in0.0 mm
04:50 AM 84.9°F29.4°C 58.6°F14.8°C 41% 1.2 mph NE1.9 kmh NE 2.3 mph3.7 kmh 29.86 in1011.2 mb - 0.00 in0.0 mm 0.00 in0.0 mm
04:55 AM 84.7°F29.3°C 58.4°F14.7°C 41% Calm Calm -- 29.86 in1011.2 mb - 0.00 in0.0 mm 0.00 in0.0 mm
05:00 AM 84.6°F29.2°C 59.0°F15.0°C 42% 3.5 mph NNE5.6 kmh NNE 3.5 mph5.6 kmh 29.87 in1011.5 mb - 0.00 in0.0 mm 0.00 in0.0 mm
05:05 AM 84.6°F29.2°C 59.0°F15.0°C 42% Calm Calm -- 29.87 in1011.5 mb - 0.00 in0.0 mm 0.00 in0.0 mm
05:10 AM 84.2°F29.0°C 59.3°F15.2°C 43% 1.2 mph NE1.9 kmh NE 1.2 mph1.9 kmh 29.87 in1011.5 mb - 0.00 in0.0 mm 0.00 in0.0 mm
05:15 AM 83.8°F28.8°C 59.0°F15.0°C 43% 3.5 mph S5.6 kmh S 4.6 mph7.4 kmh 29.87 in1011.5 mb - 0.00 in0.0 mm 0.00 in0.0 mm
05:20 AM 83.7°F28.7°C 59.5°F15.3°C 44% Calm Calm -- 29.87 in1011.5 mb - 0.00 in0.0 mm 0.00 in0.0 mm
05:25 AM 83.3°F28.5°C 59.1°F15.1°C 44% Calm Calm -- 29.87 in1011.5 mb - 0.00 in0.0 mm 0.00 in0.0 mm
05:30 AM 82.9°F28.3°C 58.8°F14.9°C 44% Calm Calm 1.2 mph1.9 kmh 29.87 in1011.5 mb - 0.00 in0.0 mm 0.00 in0.0 mm
05:35 AM 82.8°F28.2°C 59.3°F15.2°C 45% Calm Calm -- 29.89 in1012.2 mb - 0.00 in0.0 mm 0.00 in0.0 mm
05:40 AM 82.4°F28.0°C 58.9°F14.9°C 45% Calm Calm -- 29.89 in1012.2 mb - 0.00 in0.0 mm 0.00 in0.0 mm
05:45 AM 82.4°F28.0°C 58.9°F14.9°C 45% Calm Calm -- 29.89 in1012.2 mb - 0.00 in0.0 mm 0.00 in0.0 mm
05:50 AM 82.6°F28.1°C 59.1°F15.1°C 45% 2.3 mph N3.7 kmh N 3.5 mph5.6 kmh 29.89 in1012.2 mb - 0.00 in0.0 mm 0.00 in0.0 mm
05:55 AM 82.6°F28.1°C 59.1°F15.1°C 45% Calm Calm 1.2 mph1.9 kmh 29.89 in1012.2 mb - 0.00 in0.0 mm 0.00 in0.0 mm
06:00 AM 82.8°F28.2°C 59.3°F15.2°C 45% Calm Calm -- 29.89 in1012.2 mb - 0.00 in0.0 mm 0.00 in0.0 mm
06:05 AM 82.9°F28.3°C 59.3°F15.2°C 45% Calm Calm -- 29.89 in1012.2 mb - 0.00 in0.0 mm 0.00 in0.0 mm
06:10 AM 83.3°F28.5°C 59.1°F15.1°C 44% Calm Calm -- 29.90 in1012.5 mb - 0.00 in0.0 mm 0.00 in0.0 mm
06:15 AM 83.3°F28.5°C 59.1°F15.1°C 44% Calm Calm -- 29.90 in1012.5 mb - 0.00 in0.0 mm 0.00 in0.0 mm
06:20 AM 83.3°F28.5°C 59.1°F15.1°C 44% Calm Calm -- 29.91 in1012.9 mb - 0.00 in0.0 mm 0.00 in0.0 mm
06:25 AM 83.5°F28.6°C 59.3°F15.2°C 44% Calm Calm -- 29.91 in1012.9 mb - 0.00 in0.0 mm 0.00 in0.0 mm
06:30 AM 83.7°F28.7°C 60.1°F15.6°C 45% Calm Calm -- 29.91 in1012.9 mb - 0.00 in0.0 mm 0.00 in0.0 mm
06:35 AM 83.2°F28.4°C 63.2°F17.3°C 51% 2.3 mph S3.7 kmh S 3.5 mph5.6 kmh 29.91 in1012.9 mb - 0.00 in0.0 mm 0.00 in0.0 mm
06:40 AM 82.8°F28.2°C 63.9°F17.7°C 53% 1.2 mph E1.9 kmh E 1.2 mph1.9 kmh 29.91 in1012.9 mb - 0.00 in0.0 mm 0.00 in0.0 mm
06:45 AM 82.3°F27.9°C 62.4°F16.9°C 51% 2.3 mph SE3.7 kmh SE 2.3 mph3.7 kmh 29.92 in1013.2 mb - 0.00 in0.0 mm 0.00 in0.0 mm
06:50 AM 82.4°F28.0°C 62.5°F16.9°C 51% Calm Calm -- 29.92 in1013.2 mb - 0.00 in0.0 mm 0.00 in0.0 mm
06:55 AM 82.6°F28.1°C 62.1°F16.7°C 50% Calm Calm -- 29.92 in1013.2 mb - 0.00 in0.0 mm 0.00 in0.0 mm
07:00 AM 83.2°F28.4°C 62.1°F16.7°C 49% 1.2 mph SE1.9 kmh SE 4.6 mph7.4 kmh 29.93 in1013.5 mb - 0.00 in0.0 mm 0.00 in0.0 mm
07:05 AM 83.9°F28.8°C 60.9°F16.1°C 46% 3.5 mph SE5.6 kmh SE 4.6 mph7.4 kmh 29.93 in1013.5 mb - 0.00 in0.0 mm 0.00 in0.0 mm
07:10 AM 84.5°F29.2°C 61.4°F16.3°C 46% 2.3 mph SE3.7 kmh SE 4.6 mph7.4 kmh 29.94 in1013.9 mb - 0.00 in0.0 mm 0.00 in0.0 mm
07:15 AM 85.3°F29.6°C 62.2°F16.8°C 46% 3.5 mph S5.6 kmh S 4.6 mph7.4 kmh 29.94 in1013.9 mb - 0.00 in0.0 mm 0.00 in0.0 mm
07:20 AM 85.6°F29.8°C 62.4°F16.9°C 46% 3.5 mph S5.6 kmh S 3.5 mph5.6 kmh 29.94 in1013.9 mb - 0.00 in0.0 mm 0.00 in0.0 mm
07:25 AM 85.6°F29.8°C 64.2°F17.9°C 49% 1.2 mph S1.9 kmh S 1.2 mph1.9 kmh 29.94 in1013.9 mb - 0.00 in0.0 mm 0.00 in0.0 mm
07:30 AM 85.3°F29.6°C 65.1°F18.4°C 51% 3.5 mph SSE5.6 kmh SSE 3.5 mph5.6 kmh 29.94 in1013.9 mb - 0.00 in0.0 mm 0.00 in0.0 mm
07:35 AM 84.6°F29.2°C 66.1°F18.9°C 54% Calm Calm -- 29.94 in1013.9 mb - 0.00 in0.0 mm 0.00 in0.0 mm
07:40 AM 85.6°F29.8°C 66.5°F19.2°C 53% Calm Calm -- 29.94 in1013.9 mb - 0.00 in0.0 mm 0.00 in0.0 mm
07:45 AM 86.0°F30.0°C 65.8°F18.8°C 51% 1.2 mph SSW1.9 kmh SSW 2.3 mph3.7 kmh 29.95 in1014.2 mb - 0.00 in0.0 mm 0.00 in0.0 mm
07:50 AM 86.0°F30.0°C 66.9°F19.4°C 53% 1.2 mph S1.9 kmh S 1.2 mph1.9 kmh 29.95 in1014.2 mb - 0.00 in0.0 mm 0.00 in0.0 mm
07:55 AM 85.6°F29.8°C 67.6°F19.8°C 55% 1.2 mph S1.9 kmh S 2.3 mph3.7 kmh 29.95 in1014.2 mb - 0.00 in0.0 mm 0.00 in0.0 mm
08:00 AM 85.3°F29.6°C 66.2°F19.0°C 53% 2.3 mph S3.7 kmh S 4.6 mph7.4 kmh 29.96 in1014.6 mb - 0.00 in0.0 mm 0.00 in0.0 mm
08:05 AM 86.4°F30.2°C 66.1°F18.9°C 51% 3.5 mph S5.6 kmh S 3.5 mph5.6 kmh 29.96 in1014.6 mb - 0.00 in0.0 mm 0.00 in0.0 mm
08:10 AM 88.2°F31.2°C 66.0°F18.9°C 48% 3.5 mph S5.6 kmh S 4.6 mph7.4 kmh 29.95 in1014.2 mb - 0.00 in0.0 mm 0.00 in0.0 mm
08:15 AM 88.0°F31.1°C 65.2°F18.4°C 47% 3.5 mph SSE5.6 kmh SSE 4.6 mph7.4 kmh 29.95 in1014.2 mb - 0.00 in0.0 mm 0.00 in0.0 mm
08:20 AM 88.7°F31.5°C 65.9°F18.8°C 47% 3.5 mph SSE5.6 kmh SSE 5.8 mph9.3 kmh 29.96 in1014.6 mb - 0.00 in0.0 mm 0.00 in0.0 mm
08:25 AM 89.7°F32.1°C 66.2°F19.0°C 46% 2.3 mph SSE3.7 kmh SSE 5.8 mph9.3 kmh 29.96 in1014.6 mb - 0.00 in0.0 mm 0.00 in0.0 mm
08:30 AM 89.4°F31.9°C 65.9°F18.8°C 46% 3.5 mph SW5.6 kmh SW 5.8 mph9.3 kmh 29.96 in1014.6 mb - 0.00 in0.0 mm 0.00 in0.0 mm
08:35 AM 88.6°F31.4°C 66.4°F19.1°C 48% 3.5 mph SSE5.6 kmh SSE 3.5 mph5.6 kmh 29.95 in1014.2 mb - 0.00 in0.0 mm 0.00 in0.0 mm
08:40 AM 87.8°F31.0°C 66.3°F19.1°C 49% 3.5 mph S5.6 kmh S 5.8 mph9.3 kmh 29.95 in1014.2 mb - 0.00 in0.0 mm 0.00 in0.0 mm
08:45 AM 87.5°F30.8°C 66.6°F19.2°C 50% 3.5 mph SW5.6 kmh SW 5.8 mph9.3 kmh 29.96 in1014.6 mb - 0.00 in0.0 mm 0.00 in0.0 mm
08:50 AM 87.6°F30.9°C 66.7°F19.3°C 50% 3.5 mph SSW5.6 kmh SSW 3.5 mph5.6 kmh 29.96 in1014.6 mb - 0.00 in0.0 mm 0.00 in0.0 mm
08:55 AM 88.7°F31.5°C 67.1°F19.5°C 49% 1.2 mph S1.9 kmh S 2.3 mph3.7 kmh 29.96 in1014.6 mb - 0.00 in0.0 mm 0.00 in0.0 mm
09:00 AM 89.5°F31.9°C 66.6°F19.2°C 47% 2.3 mph E3.7 kmh E 3.5 mph5.6 kmh 29.96 in1014.6 mb - 0.00 in0.0 mm 0.00 in0.0 mm
09:05 AM 90.7°F32.6°C 67.1°F19.5°C 46% 3.5 mph S5.6 kmh S 2.3 mph3.7 kmh 29.96 in1014.6 mb - 0.00 in0.0 mm 0.00 in0.0 mm
09:10 AM 91.7°F33.2°C 67.4°F19.7°C 45% 1.2 mph ENE1.9 kmh ENE 1.2 mph1.9 kmh 29.96 in1014.6 mb - 0.00 in0.0 mm 0.00 in0.0 mm
09:15 AM 92.4°F33.6°C 67.3°F19.6°C 44% 2.3 mph SSW3.7 kmh SSW 3.5 mph5.6 kmh 29.96 in1014.6 mb - 0.00 in0.0 mm 0.00 in0.0 mm
09:20 AM 92.5°F33.6°C 66.7°F19.3°C 43% 2.3 mph WNW3.7 kmh WNW 3.5 mph5.6 kmh 29.95 in1014.2 mb - 0.00 in0.0 mm 0.00 in0.0 mm
09:25 AM 92.3°F33.5°C 65.9°F18.8°C 42% 2.3 mph NNE3.7 kmh NNE 2.3 mph3.7 kmh 29.95 in1014.2 mb - 0.00 in0.0 mm 0.00 in0.0 mm
09:30 AM 93.2°F34.0°C 66.7°F19.3°C 42% 2.3 mph NE3.7 kmh NE 1.2 mph1.9 kmh 29.95 in1014.2 mb - 0.00 in0.0 mm 0.00 in0.0 mm
09:35 AM 94.1°F34.5°C 66.1°F18.9°C 40% 2.3 mph ENE3.7 kmh ENE 2.3 mph3.7 kmh 29.95 in1014.2 mb - 0.00 in0.0 mm 0.00 in0.0 mm
09:40 AM 94.8°F34.9°C 66.0°F18.9°C 39% 1.2 mph E1.9 kmh E 2.3 mph3.7 kmh 29.95 in1014.2 mb - 0.00 in0.0 mm 0.00 in0.0 mm
09:45 AM 95.1°F35.1°C 65.5°F18.6°C 38% 2.3 mph SE3.7 kmh SE 3.5 mph5.6 kmh 29.95 in1014.2 mb - 0.00 in0.0 mm 0.00 in0.0 mm
09:50 AM 95.5°F35.3°C 65.1°F18.4°C 37% 2.3 mph SSE3.7 kmh SSE 4.6 mph7.4 kmh 29.95 in1014.2 mb - 0.00 in0.0 mm 0.00 in0.0 mm
09:55 AM 94.5°F34.7°C 65.0°F18.3°C 38% 1.2 mph NW1.9 kmh NW 1.2 mph1.9 kmh 29.95 in1014.2 mb - 0.00 in0.0 mm 0.00 in0.0 mm
10:00 AM 96.7°F35.9°C 66.2°F19.0°C 37% 1.2 mph S1.9 kmh S 4.6 mph7.4 kmh 29.95 in1014.2 mb - 0.00 in0.0 mm 0.00 in0.0 mm
10:05 AM 96.4°F35.8°C 65.9°F18.8°C 37% 4.6 mph SE7.4 kmh SE 4.6 mph7.4 kmh 29.95 in1014.2 mb - 0.00 in0.0 mm 0.00 in0.0 mm
10:10 AM 97.0°F36.1°C 65.6°F18.7°C 36% 3.5 mph E5.6 kmh E 5.8 mph9.3 kmh 29.95 in1014.2 mb - 0.00 in0.0 mm 0.00 in0.0 mm
10:15 AM 95.1°F35.1°C 64.8°F18.2°C 37% 4.6 mph SSW7.4 kmh SSW 4.6 mph7.4 kmh 29.95 in1014.2 mb - 0.00 in0.0 mm 0.00 in0.0 mm
10:20 AM 95.1°F35.1°C 64.0°F17.8°C 36% 5.8 mph S9.3 kmh S 6.9 mph11.1 kmh 29.95 in1014.2 mb - 0.00 in0.0 mm 0.00 in0.0 mm
10:25 AM 95.9°F35.5°C 66.2°F19.0°C 38% 4.6 mph SE7.4 kmh SE 5.8 mph9.3 kmh 29.95 in1014.2 mb - 0.00 in0.0 mm 0.00 in0.0 mm
10:30 AM 96.6°F35.9°C 65.2°F18.4°C 36% 3.5 mph SSW5.6 kmh SSW 4.6 mph7.4 kmh 29.95 in1014.2 mb - 0.00 in0.0 mm 0.00 in0.0 mm
10:35 AM 96.4°F35.8°C 65.9°F18.8°C 37% 5.8 mph SE9.3 kmh SE 5.8 mph9.3 kmh 29.95 in1014.2 mb - 0.00 in0.0 mm 0.00 in0.0 mm
10:40 AM 96.7°F35.9°C 65.4°F18.6°C 36% 4.6 mph SW7.4 kmh SW 5.8 mph9.3 kmh 29.95 in1014.2 mb - 0.00 in0.0 mm 0.00 in0.0 mm
10:45 AM 96.6°F35.9°C 66.1°F18.9°C 37% 4.6 mph SE7.4 kmh SE 4.6 mph7.4 kmh 29.95 in1014.2 mb - 0.00 in0.0 mm 0.00 in0.0 mm
10:50 AM 97.6°F36.4°C 66.1°F18.9°C 36% 4.6 mph E7.4 kmh E 5.8 mph9.3 kmh 29.95 in1014.2 mb - 0.00 in0.0 mm 0.00 in0.0 mm
10:55 AM 97.5°F36.4°C 63.6°F17.6°C 33% 8.1 mph SE13.0 kmh SE 9.2 mph14.8 kmh 29.95 in1014.2 mb - 0.00 in0.0 mm 0.00 in0.0 mm
11:00 AM 97.3°F36.3°C 64.2°F17.9°C 34% 4.6 mph S7.4 kmh S 5.8 mph9.3 kmh 29.95 in1014.2 mb - 0.00 in0.0 mm 0.00 in0.0 mm
11:05 AM 97.0°F36.1°C 64.8°F18.2°C 35% 5.8 mph SSW9.3 kmh SSW 6.9 mph11.1 kmh 29.95 in1014.2 mb - 0.00 in0.0 mm 0.00 in0.0 mm
11:10 AM 97.0°F36.1°C 63.9°F17.7°C 34% 8.1 mph S13.0 kmh S 8.1 mph13.0 kmh 29.95 in1014.2 mb - 0.00 in0.0 mm 0.00 in0.0 mm
11:15 AM 96.8°F36.0°C 63.8°F17.7°C 34% 6.9 mph S11.1 kmh S 10.4 mph16.7 kmh 29.95 in1014.2 mb - 0.00 in0.0 mm 0.00 in0.0 mm
11:20 AM 96.0°F35.6°C 63.1°F17.3°C 34% 6.9 mph S11.1 kmh S 6.9 mph11.1 kmh 29.95 in1014.2 mb - 0.00 in0.0 mm 0.00 in0.0 mm
11:25 AM 97.6°F36.4°C 64.5°F18.1°C 34% 4.6 mph S7.4 kmh S 8.1 mph13.0 kmh 29.95 in1014.2 mb - 0.00 in0.0 mm 0.00 in0.0 mm
11:30 AM 97.0°F36.1°C 64.8°F18.2°C 35% 5.8 mph SW9.3 kmh SW 6.9 mph11.1 kmh 29.95 in1014.2 mb - 0.00 in0.0 mm 0.00 in0.0 mm
11:35 AM 96.6°F35.9°C 64.4°F18.0°C 35% 5.8 mph SSW9.3 kmh SSW 6.9 mph11.1 kmh 29.94 in1013.9 mb - 0.00 in0.0 mm 0.00 in0.0 mm
11:40 AM 96.7°F35.9°C 63.7°F17.6°C 34% 4.6 mph SSW7.4 kmh SSW 4.6 mph7.4 kmh 29.94 in1013.9 mb - 0.00 in0.0 mm 0.00 in0.0 mm
11:45 AM 97.3°F36.3°C 64.3°F17.9°C 34% 5.8 mph SSW9.3 kmh SSW 6.9 mph11.1 kmh 29.94 in1013.9 mb - 0.00 in0.0 mm 0.00 in0.0 mm
11:50 AM 97.8°F36.6°C 63.9°F17.7°C 33% 5.8 mph S9.3 kmh S 10.4 mph16.7 kmh 29.94 in1013.9 mb - 0.00 in0.0 mm 0.00 in0.0 mm
11:55 AM 97.2°F36.2°C 64.2°F17.9°C 34% 5.8 mph SSW9.3 kmh SSW 5.8 mph9.3 kmh 29.94 in1013.9 mb - 0.00 in0.0 mm 0.00 in0.0 mm
12:00 PM 98.1°F36.7°C 65.8°F18.8°C 35% 5.8 mph SSW9.3 kmh SSW 6.9 mph11.1 kmh 29.93 in1013.5 mb - 0.00 in0.0 mm 0.00 in0.0 mm
12:05 PM 96.9°F36.1°C 65.5°F18.6°C 36% 3.5 mph SSW5.6 kmh SSW 4.6 mph7.4 kmh 29.93 in1013.5 mb - 0.00 in0.0 mm 0.00 in0.0 mm
12:10 PM 98.1°F36.7°C 66.6°F19.2°C 36% 2.3 mph S3.7 kmh S 8.1 mph13.0 kmh 29.93 in1013.5 mb - 0.00 in0.0 mm 0.00 in0.0 mm
12:15 PM 98.2°F36.8°C 66.7°F19.3°C 36% 5.8 mph S9.3 kmh S 9.2 mph14.8 kmh 29.93 in1013.5 mb - 0.00 in0.0 mm 0.00 in0.0 mm
12:20 PM 97.2°F36.2°C 65.0°F18.3°C 35% 3.5 mph S5.6 kmh S 3.5 mph5.6 kmh 29.93 in1013.5 mb - 0.00 in0.0 mm 0.00 in0.0 mm
12:25 PM 99.0°F37.2°C 66.6°F19.2°C 35% 4.6 mph SW7.4 kmh SW 5.8 mph9.3 kmh 29.93 in1013.5 mb - 0.00 in0.0 mm 0.00 in0.0 mm
12:30 PM 98.8°F37.1°C 66.4°F19.1°C 35% 5.8 mph S9.3 kmh S 5.8 mph9.3 kmh 29.93 in1013.5 mb - 0.00 in0.0 mm 0.00 in0.0 mm
12:35 PM 97.3°F36.3°C 66.6°F19.2°C 37% 6.9 mph S11.1 kmh S 6.9 mph11.1 kmh 29.92 in1013.2 mb - 0.00 in0.0 mm 0.00 in0.0 mm
12:40 PM 97.2°F36.2°C 65.0°F18.3°C 35% 5.8 mph SW9.3 kmh SW 6.9 mph11.1 kmh 29.92 in1013.2 mb - 0.00 in0.0 mm 0.00 in0.0 mm
12:45 PM 99.5°F37.5°C 66.2°F19.0°C 34% 6.9 mph S11.1 kmh S 8.1 mph13.0 kmh 29.92 in1013.2 mb - 0.00 in0.0 mm 0.00 in0.0 mm
12:50 PM 98.2°F36.8°C 65.8°F18.8°C 35% 6.9 mph S11.1 kmh S 9.2 mph14.8 kmh 29.92 in1013.2 mb - 0.00 in0.0 mm 0.00 in0.0 mm
12:55 PM 97.7°F36.5°C 64.6°F18.1°C 34% 5.8 mph S9.3 kmh S 4.6 mph7.4 kmh 29.92 in1013.2 mb - 0.00 in0.0 mm 0.00 in0.0 mm
01:00 PM 99.3°F37.4°C 66.0°F18.9°C 34% 5.8 mph S9.3 kmh S 9.2 mph14.8 kmh 29.92 in1013.2 mb - 0.00 in0.0 mm 0.00 in0.0 mm
01:05 PM 98.3°F36.8°C 65.1°F18.4°C 34% 6.9 mph SW11.1 kmh SW 4.6 mph7.4 kmh 29.92 in1013.2 mb - 0.00 in0.0 mm 0.00 in0.0 mm
01:10 PM 100.2°F37.9°C 65.9°F18.8°C 33% 5.8 mph SSW9.3 kmh SSW 6.9 mph11.1 kmh 29.91 in1012.9 mb - 0.00 in0.0 mm 0.00 in0.0 mm
01:15 PM 99.7°F37.6°C 65.5°F18.6°C 33% 6.9 mph S11.1 kmh S 6.9 mph11.1 kmh 29.91 in1012.9 mb - 0.00 in0.0 mm 0.00 in0.0 mm
01:20 PM 99.3°F37.4°C 65.1°F18.4°C 33% 2.3 mph SW3.7 kmh SW 3.5 mph5.6 kmh 29.91 in1012.9 mb - 0.00 in0.0 mm 0.00 in0.0 mm
01:25 PM 101.3°F38.5°C 66.0°F18.9°C 32% 3.5 mph ESE5.6 kmh ESE 3.5 mph5.6 kmh 29.91 in1012.9 mb - 0.00 in0.0 mm 0.00 in0.0 mm
01:30 PM 100.3°F37.9°C 66.0°F18.9°C 33% 5.8 mph SSE9.3 kmh SSE 5.8 mph9.3 kmh 29.91 in1012.9 mb - 0.00 in0.0 mm 0.00 in0.0 mm
01:35 PM 101.2°F38.4°C 65.9°F18.8°C 32% 5.8 mph S9.3 kmh S 5.8 mph9.3 kmh 29.90 in1012.5 mb - 0.00 in0.0 mm 0.00 in0.0 mm
01:40 PM 100.0°F37.8°C 64.9°F18.3°C 32% 3.5 mph SSE5.6 kmh SSE 5.8 mph9.3 kmh 29.90 in1012.5 mb - 0.00 in0.0 mm 0.00 in0.0 mm
01:45 PM 100.6°F38.1°C 65.4°F18.6°C 32% 5.8 mph SSW9.3 kmh SSW 5.8 mph9.3 kmh 29.89 in1012.2 mb - 0.00 in0.0 mm 0.00 in0.0 mm
01:50 PM 100.6°F38.1°C 65.4°F18.6°C 32% 4.6 mph SSW7.4 kmh SSW 6.9 mph11.1 kmh 29.89 in1012.2 mb - 0.00 in0.0 mm 0.00 in0.0 mm
01:55 PM 99.9°F37.7°C 65.6°F18.7°C 33% 4.6 mph S7.4 kmh S 5.8 mph9.3 kmh 29.89 in1012.2 mb - 0.00 in0.0 mm 0.00 in0.0 mm
02:00 PM 100.8°F38.2°C 66.4°F19.1°C 33% 4.6 mph SW7.4 kmh SW 6.9 mph11.1 kmh 29.89 in1012.2 mb - 0.00 in0.0 mm 0.00 in0.0 mm
02:05 PM 100.5°F38.1°C 65.3°F18.5°C 32% 4.6 mph NNE7.4 kmh NNE 5.8 mph9.3 kmh 29.89 in1012.2 mb - 0.00 in0.0 mm 0.00 in0.0 mm
02:10 PM 101.5°F38.6°C 66.1°F18.9°C 32% 6.9 mph E11.1 kmh E 6.9 mph11.1 kmh 29.89 in1012.2 mb - 0.00 in0.0 mm 0.00 in0.0 mm
02:15 PM 100.4°F38.0°C 65.2°F18.4°C 32% 6.9 mph S11.1 kmh S 9.2 mph14.8 kmh 29.89 in1012.2 mb - 0.00 in0.0 mm 0.00 in0.0 mm
02:20 PM 100.6°F38.1°C 65.4°F18.6°C 32% 4.6 mph SW7.4 kmh SW 6.9 mph11.1 kmh 29.88 in1011.9 mb - 0.00 in0.0 mm 0.00 in0.0 mm
02:25 PM 100.3°F37.9°C 65.1°F18.4°C 32% 5.8 mph SW9.3 kmh SW 5.8 mph9.3 kmh 29.88 in1011.9 mb - 0.00 in0.0 mm 0.00 in0.0 mm
02:30 PM 101.3°F38.5°C 65.1°F18.4°C 31% 5.8 mph S9.3 kmh S 10.4 mph16.7 kmh 29.88 in1011.9 mb - 0.00 in0.0 mm 0.00 in0.0 mm
02:35 PM 100.3°F37.9°C 65.1°F18.4°C 32% 4.6 mph W7.4 kmh W 3.5 mph5.6 kmh 29.88 in1011.9 mb - 0.00 in0.0 mm 0.00 in0.0 mm
02:40 PM 100.7°F38.2°C 65.4°F18.6°C 32% 6.9 mph S11.1 kmh S 9.2 mph14.8 kmh 29.88 in1011.9 mb - 0.00 in0.0 mm 0.00 in0.0 mm
02:45 PM 100.2°F37.9°C 65.9°F18.8°C 33% 4.6 mph W7.4 kmh W 5.8 mph9.3 kmh 29.87 in1011.5 mb - 0.00 in0.0 mm 0.00 in0.0 mm
02:50 PM 101.1°F38.4°C 65.8°F18.8°C 32% 4.6 mph S7.4 kmh S 5.8 mph9.3 kmh 29.87 in1011.5 mb - 0.00 in0.0 mm 0.00 in0.0 mm
02:55 PM 101.5°F38.6°C 66.1°F18.9°C 32% 5.8 mph SW9.3 kmh SW 6.9 mph11.1 kmh 29.87 in1011.5 mb - 0.00 in0.0 mm 0.00 in0.0 mm
03:00 PM 100.8°F38.2°C 66.4°F19.1°C 33% 4.6 mph S7.4 kmh S 5.8 mph9.3 kmh 29.87 in1011.5 mb - 0.00 in0.0 mm 0.00 in0.0 mm
03:05 PM 100.8°F38.2°C 66.4°F19.1°C 33% 3.5 mph SE5.6 kmh SE 5.8 mph9.3 kmh 29.87 in1011.5 mb - 0.00 in0.0 mm 0.00 in0.0 mm
03:10 PM 99.7°F37.6°C 65.5°F18.6°C 33% 3.5 mph NW5.6 kmh NW 2.3 mph3.7 kmh 29.87 in1011.5 mb - 0.00 in0.0 mm 0.00 in0.0 mm
03:15 PM 100.2°F37.9°C 65.0°F18.3°C 32% 2.3 mph NW3.7 kmh NW 2.3 mph3.7 kmh 29.87 in1011.5 mb - 0.00 in0.0 mm 0.00 in0.0 mm
03:20 PM 100.0°F37.8°C 64.9°F18.3°C 32% Calm Calm 1.2 mph1.9 kmh 29.86 in1011.2 mb - 0.00 in0.0 mm 0.00 in0.0 mm
03:25 PM 102.3°F39.1°C 65.0°F18.3°C 30% 2.3 mph S3.7 kmh S 5.8 mph9.3 kmh 29.86 in1011.2 mb - 0.00 in0.0 mm 0.00 in0.0 mm
03:30 PM 102.7°F39.3°C 66.3°F19.1°C 31% 4.6 mph SW7.4 kmh SW 9.2 mph14.8 kmh 29.86 in1011.2 mb - 0.00 in0.0 mm 0.00 in0.0 mm
03:35 PM 102.0°F38.9°C 65.6°F18.7°C 31% 4.6 mph S7.4 kmh S 5.8 mph9.3 kmh 29.86 in1011.2 mb - 0.00 in0.0 mm 0.00 in0.0 mm
03:40 PM 101.1°F38.4°C 64.9°F18.3°C 31% 4.6 mph SSW7.4 kmh SSW 5.8 mph9.3 kmh 29.86 in1011.2 mb - 0.00 in0.0 mm 0.00 in0.0 mm
03:45 PM 100.9°F38.3°C 64.7°F18.2°C 31% 3.5 mph S5.6 kmh S 3.5 mph5.6 kmh 29.85 in1010.8 mb - 0.00 in0.0 mm 0.00 in0.0 mm
03:50 PM 100.7°F38.2°C 64.5°F18.1°C 31% 2.3 mph WSW3.7 kmh WSW 2.3 mph3.7 kmh 29.85 in1010.8 mb - 0.00 in0.0 mm 0.00 in0.0 mm
03:55 PM 100.4°F38.0°C 64.3°F17.9°C 31% 4.6 mph SW7.4 kmh SW 4.6 mph7.4 kmh 29.85 in1010.8 mb - 0.00 in0.0 mm 0.00 in0.0 mm
04:00 PM 101.2°F38.4°C 65.0°F18.3°C 31% 4.6 mph SSW7.4 kmh SSW 5.8 mph9.3 kmh 29.85 in1010.8 mb - 0.00 in0.0 mm 0.00 in0.0 mm
04:05 PM 100.9°F38.3°C 64.7°F18.2°C 31% 3.5 mph S5.6 kmh S 3.5 mph5.6 kmh 29.85 in1010.8 mb - 0.00 in0.0 mm 0.00 in0.0 mm
04:10 PM 100.7°F38.2°C 64.5°F18.1°C 31% 4.6 mph S7.4 kmh S 5.8 mph9.3 kmh 29.84 in1010.5 mb - 0.00 in0.0 mm 0.00 in0.0 mm
04:15 PM 100.6°F38.1°C 64.5°F18.1°C 31% 5.8 mph WSW9.3 kmh WSW 5.8 mph9.3 kmh 29.84 in1010.5 mb - 0.00 in0.0 mm 0.00 in0.0 mm
04:20 PM 99.7°F37.6°C 63.7°F17.6°C 31% 3.5 mph SSW5.6 kmh SSW 5.8 mph9.3 kmh 29.84 in1010.5 mb - 0.00 in0.0 mm 0.00 in0.0 mm
04:25 PM 100.0°F37.8°C 63.0°F17.2°C 30% 1.2 mph SSW1.9 kmh SSW 2.3 mph3.7 kmh 29.84 in1010.5 mb - 0.00 in0.0 mm 0.00 in0.0 mm
04:30 PM 100.6°F38.1°C 64.4°F18.0°C 31% 3.5 mph SSW5.6 kmh SSW 4.6 mph7.4 kmh 29.84 in1010.5 mb - 0.00 in0.0 mm 0.00 in0.0 mm
04:35 PM 100.8°F38.2°C 64.6°F18.1°C 31% 3.5 mph E5.6 kmh E 4.6 mph7.4 kmh 29.84 in1010.5 mb - 0.00 in0.0 mm 0.00 in0.0 mm
04:40 PM 100.9°F38.3°C 64.7°F18.2°C 31% 1.2 mph SW1.9 kmh SW 2.3 mph3.7 kmh 29.84 in1010.5 mb - 0.00 in0.0 mm 0.00 in0.0 mm
04:45 PM 100.6°F38.1°C 64.5°F18.1°C 31% 6.9 mph S11.1 kmh S 6.9 mph11.1 kmh 29.83 in1010.2 mb - 0.00 in0.0 mm 0.00 in0.0 mm
04:50 PM 99.9°F37.7°C 63.9°F17.7°C 31% 4.6 mph SSW7.4 kmh SSW 3.5 mph5.6 kmh 29.83 in1010.2 mb - 0.00 in0.0 mm 0.00 in0.0 mm
04:55 PM 99.9°F37.7°C 63.9°F17.7°C 31% 3.5 mph SSW5.6 kmh SSW 3.5 mph5.6 kmh 29.83 in1010.2 mb - 0.00 in0.0 mm 0.00 in0.0 mm
05:00 PM 99.2°F37.3°C 63.3°F17.4°C 31% 2.3 mph S3.7 kmh S 2.3 mph3.7 kmh 29.82 in1009.8 mb - 0.00 in0.0 mm 0.00 in0.0 mm
05:20 PM 100.2°F37.9°C 64.1°F17.8°C 31% 5.8 mph SW9.3 kmh SW 9.2 mph14.8 kmh 29.82 in1009.8 mb - 0.00 in0.0 mm 0.00 in0.0 mm
05:30 PM 99.9°F37.7°C 63.9°F17.7°C 31% 3.5 mph SSW5.6 kmh SSW 4.6 mph7.4 kmh 29.82 in1009.8 mb - 0.00 in0.0 mm 0.00 in0.0 mm
06:00 PM 99.5°F37.5°C 63.5°F17.5°C 31% 4.6 mph SE7.4 kmh SE 4.6 mph7.4 kmh 29.82 in1009.8 mb - 0.00 in0.0 mm 0.00 in0.0 mm
06:05 PM 99.2°F37.3°C 63.2°F17.3°C 31% 3.5 mph SW5.6 kmh SW 4.6 mph7.4 kmh 29.82 in1009.8 mb - 0.00 in0.0 mm 0.00 in0.0 mm
06:35 PM 98.1°F36.7°C 64.0°F17.8°C 33% 3.5 mph SSW5.6 kmh SSW 4.6 mph7.4 kmh 29.82 in1009.8 mb - 0.00 in0.0 mm 0.00 in0.0 mm
06:45 PM 97.3°F36.3°C 63.4°F17.4°C 33% 3.5 mph SSW5.6 kmh SSW 4.6 mph7.4 kmh 29.82 in1009.8 mb - 0.00 in0.0 mm 0.00 in0.0 mm
06:55 PM 97.2°F36.2°C 63.3°F17.4°C 33% 2.3 mph S3.7 kmh S 2.3 mph3.7 kmh 29.83 in1010.2 mb - 0.00 in0.0 mm 0.00 in0.0 mm
07:30 PM 96.1°F35.6°C 63.2°F17.3°C 34% 1.2 mph S1.9 kmh S 2.3 mph3.7 kmh 29.84 in1010.5 mb - 0.00 in0.0 mm 0.00 in0.0 mm
07:50 PM 89.3°F31.8°C 64.5°F18.1°C 44% 12.7 mph E20.4 kmh E 18.4 mph29.6 kmh 29.85 in1010.8 mb - 0.00 in0.0 mm 0.00 in0.0 mm
08:30 PM 84.2°F29.0°C 63.5°F17.5°C 50% 13.8 mph NE22.2 kmh NE 17.3 mph27.8 kmh 29.89 in1012.2 mb - 0.00 in0.0 mm 0.00 in0.0 mm
08:35 PM 84.2°F29.0°C 62.4°F16.9°C 48% 15.0 mph NE24.1 kmh NE 18.4 mph29.6 kmh 29.90 in1012.5 mb - 0.00 in0.0 mm 0.00 in0.0 mm
08:40 PM 84.2°F29.0°C 62.4°F16.9°C 48% 17.3 mph NE27.8 kmh NE 20.7 mph33.3 kmh 29.90 in1012.5 mb - 0.00 in0.0 mm 0.00 in0.0 mm
08:45 PM 83.7°F28.7°C 64.2°F17.9°C 52% 13.8 mph N22.2 kmh N 17.3 mph27.8 kmh 29.91 in1012.9 mb - 0.00 in0.0 mm 0.00 in0.0 mm
08:50 PM 82.4°F28.0°C 64.7°F18.2°C 55% 16.1 mph NE25.9 kmh NE 16.1 mph25.9 kmh 29.91 in1012.9 mb - 0.00 in0.0 mm 0.00 in0.0 mm
08:55 PM 81.3°F27.4°C 65.1°F18.4°C 58% 16.1 mph N25.9 kmh N 20.7 mph33.3 kmh 29.91 in1012.9 mb - 0.00 in0.0 mm 0.00 in0.0 mm
09:00 PM 81.1°F27.3°C 64.9°F18.3°C 58% 20.7 mph NE33.3 kmh NE 24.2 mph38.9 kmh 29.90 in1012.5 mb - 0.00 in0.0 mm 0.00 in0.0 mm
09:05 PM 80.5°F26.9°C 66.2°F19.0°C 62% 19.6 mph N31.5 kmh N 20.7 mph33.3 kmh 29.90 in1012.5 mb - 0.00 in0.0 mm 0.00 in0.0 mm
09:10 PM 79.8°F26.6°C 66.1°F18.9°C 63% 18.4 mph NE29.6 kmh NE 20.7 mph33.3 kmh 29.91 in1012.9 mb - 0.00 in0.0 mm 0.00 in0.0 mm
09:15 PM 79.2°F26.2°C 66.4°F19.1°C 65% 16.1 mph NE25.9 kmh NE 18.4 mph29.6 kmh 29.91 in1012.9 mb - 0.00 in0.0 mm 0.00 in0.0 mm
09:20 PM 78.5°F25.8°C 66.2°F19.0°C 66% 19.6 mph N31.5 kmh N 23.0 mph37.0 kmh 29.91 in1012.9 mb - 0.00 in0.0 mm 0.00 in0.0 mm
09:25 PM 78.3°F25.7°C 66.4°F19.1°C 67% 17.3 mph NNE27.8 kmh NNE 23.0 mph37.0 kmh 29.91 in1012.9 mb - 0.00 in0.0 mm 0.00 in0.0 mm
09:30 PM 78.9°F26.1°C 65.7°F18.7°C 64% 17.3 mph NNW27.8 kmh NNW 20.7 mph33.3 kmh 29.91 in1012.9 mb - 0.00 in0.0 mm 0.00 in0.0 mm
09:35 PM 81.2°F27.3°C 63.5°F17.5°C 55% 15.0 mph N24.1 kmh N 16.1 mph25.9 kmh 29.90 in1012.5 mb - 0.00 in0.0 mm 0.00 in0.0 mm
09:40 PM 80.6°F27.0°C 66.8°F19.3°C 63% 8.1 mph SW13.0 kmh SW 10.4 mph16.7 kmh 29.90 in1012.5 mb - 0.00 in0.0 mm 0.00 in0.0 mm
09:45 PM 78.9°F26.1°C 65.3°F18.5°C 63% 16.1 mph NNW25.9 kmh NNW 18.4 mph29.6 kmh 29.93 in1013.5 mb - 0.00 in0.0 mm 0.00 in0.0 mm
09:50 PM 79.7°F26.5°C 64.6°F18.1°C 60% 11.5 mph NNE18.5 kmh NNE 15.0 mph24.1 kmh 29.93 in1013.5 mb - 0.00 in0.0 mm 0.00 in0.0 mm
09:55 PM 79.6°F26.4°C 65.4°F18.6°C 62% 10.4 mph WNW16.7 kmh WNW 11.5 mph18.5 kmh 29.93 in1013.5 mb - 0.00 in0.0 mm 0.00 in0.0 mm
10:00 PM 79.2°F26.2°C 65.5°F18.6°C 63% 11.5 mph N18.5 kmh N 16.1 mph25.9 kmh 29.93 in1013.5 mb - 0.00 in0.0 mm 0.00 in0.0 mm
10:05 PM 74.4°F23.6°C 67.1°F19.5°C 78% 11.5 mph NNW18.5 kmh NNW 16.1 mph25.9 kmh 29.93 in1013.5 mb - 0.13 in3.3 mm 0.13 in3.3 mm
10:10 PM 72.7°F22.6°C 66.1°F18.9°C 80% 12.7 mph NE20.4 kmh NE 15.0 mph24.1 kmh 29.92 in1013.2 mb - 0.08 in2.0 mm 0.20 in5.1 mm
10:15 PM 72.1°F22.3°C 65.9°F18.8°C 81% 13.8 mph NNE22.2 kmh NNE 13.8 mph22.2 kmh 29.92 in1013.2 mb - 0.02 in0.5 mm 0.21 in5.3 mm
10:20 PM 72.1°F22.3°C 65.9°F18.8°C 81% 13.8 mph NNE22.2 kmh NNE 18.4 mph29.6 kmh 29.91 in1012.9 mb - 0.01 in0.3 mm 0.22 in5.6 mm
10:25 PM 73.2°F22.9°C 65.6°F18.7°C 77% 12.7 mph NE20.4 kmh NE 13.8 mph22.2 kmh 29.91 in1012.9 mb - 0.02 in0.5 mm 0.23 in5.8 mm
10:30 PM 73.0°F22.8°C 66.5°F19.2°C 80% 11.5 mph NE18.5 kmh NE 12.7 mph20.4 kmh 29.91 in1012.9 mb - 0.00 in0.0 mm 0.23 in5.8 mm
10:35 PM 73.0°F22.8°C 66.5°F19.2°C 80% 8.1 mph NNW13.0 kmh NNW 9.2 mph14.8 kmh 29.90 in1012.5 mb - 0.00 in0.0 mm 0.23 in5.8 mm
10:40 PM 73.6°F23.1°C 67.0°F19.4°C 80% 9.2 mph N14.8 kmh N 11.5 mph18.5 kmh 29.90 in1012.5 mb - 0.00 in0.0 mm 0.23 in5.8 mm
10:45 PM 73.8°F23.2°C 66.5°F19.2°C 78% 6.9 mph NNE11.1 kmh NNE 8.1 mph13.0 kmh 29.91 in1012.9 mb - 0.00 in0.0 mm 0.23 in5.8 mm
10:50 PM 73.8°F23.2°C 66.9°F19.4°C 79% 4.6 mph NNW7.4 kmh NNW 5.8 mph9.3 kmh 29.91 in1012.9 mb - 0.00 in0.0 mm 0.23 in5.8 mm
10:55 PM 73.8°F23.2°C 67.2°F19.6°C 80% 5.8 mph N9.3 kmh N 8.1 mph13.0 kmh 29.91 in1012.9 mb - 0.00 in0.0 mm 0.23 in5.8 mm
11:00 PM 73.8°F23.2°C 67.2°F19.6°C 80% 6.9 mph NNW11.1 kmh NNW 8.1 mph13.0 kmh 29.91 in1012.9 mb - 0.00 in0.0 mm 0.23 in5.8 mm
11:05 PM 73.9°F23.3°C 66.9°F19.4°C 79% 6.9 mph N11.1 kmh N 8.1 mph13.0 kmh 29.91 in1012.9 mb - 0.00 in0.0 mm 0.23 in5.8 mm
11:10 PM 74.0°F23.3°C 66.7°F19.3°C 78% 8.1 mph NNE13.0 kmh NNE 13.8 mph22.2 kmh 29.91 in1012.9 mb - 0.00 in0.0 mm 0.23 in5.8 mm
11:15 PM 74.3°F23.5°C 67.0°F19.4°C 78% 5.8 mph N9.3 kmh N 8.1 mph13.0 kmh 29.91 in1012.9 mb - 0.00 in0.0 mm 0.23 in5.8 mm
11:20 PM 74.4°F23.6°C 67.5°F19.7°C 79% 3.5 mph WSW5.6 kmh WSW 4.6 mph7.4 kmh 29.92 in1013.2 mb - 0.00 in0.0 mm 0.23 in5.8 mm
11:25 PM 74.3°F23.5°C 67.0°F19.4°C 78% 5.8 mph SSW9.3 kmh SSW 5.8 mph9.3 kmh 29.92 in1013.2 mb - 0.00 in0.0 mm 0.23 in5.8 mm
11:30 PM 74.7°F23.7°C 66.2°F19.0°C 75% 3.5 mph N5.6 kmh N 5.8 mph9.3 kmh 29.92 in1013.2 mb - 0.00 in0.0 mm 0.23 in5.8 mm
11:35 PM 75.4°F24.1°C 66.2°F19.0°C 73% 4.6 mph NW7.4 kmh NW 5.8 mph9.3 kmh 29.94 in1013.9 mb - 0.00 in0.0 mm 0.23 in5.8 mm
11:40 PM 75.6°F24.2°C 66.7°F19.3°C 74% 2.3 mph W3.7 kmh W 4.6 mph7.4 kmh 29.94 in1013.9 mb - 0.00 in0.0 mm 0.23 in5.8 mm
11:45 PM 75.7°F24.3°C 66.4°F19.1°C 73% 10.4 mph NNW16.7 kmh NNW 10.4 mph16.7 kmh 29.92 in1013.2 mb - 0.00 in0.0 mm 0.23 in5.8 mm
11:50 PM 75.8°F24.3°C 66.6°F19.2°C 73% 9.2 mph NNW14.8 kmh NNW 10.4 mph16.7 kmh 29.92 in1013.2 mb - 0.00 in0.0 mm 0.23 in5.8 mm
11:55 PM 75.9°F24.4°C 66.6°F19.2°C 73% 2.3 mph W3.7 kmh W 3.5 mph5.6 kmh 29.92 in1013.2 mb - 0.00 in0.0 mm 0.23 in5.8 mm